sensor_id;sensor_type;location;lat;lon;timestamp;temperature;humidity
10247;DHT22;5168;47.854;7.944;2024-01-30T00:01:16;6.00;64.60
10247;DHT22;5168;47.854;7.944;2024-01-30T00:03:41;5.60;63.80
10247;DHT22;5168;47.854;7.944;2024-01-30T00:06:08;5.90;62.50
10247;DHT22;5168;47.854;7.944;2024-01-30T00:08:34;6.00;62.90
10247;DHT22;5168;47.854;7.944;2024-01-30T00:10:59;5.70;60.70
10247;DHT22;5168;47.854;7.944;2024-01-30T00:18:17;6.40;60.30
10247;DHT22;5168;47.854;7.944;2024-01-30T00:20:44;6.40;58.90
10247;DHT22;5168;47.854;7.944;2024-01-30T00:28:01;6.80;58.90
10247;DHT22;5168;47.854;7.944;2024-01-30T00:30:27;6.70;58.60
10247;DHT22;5168;47.854;7.944;2024-01-30T00:32:53;6.40;59.00
10247;DHT22;5168;47.854;7.944;2024-01-30T00:35:19;6.20;59.00
10247;DHT22;5168;47.854;7.944;2024-01-30T00:37:44;7.10;57.00
10247;DHT22;5168;47.854;7.944;2024-01-30T00:42:41;6.80;57.00
10247;DHT22;5168;47.854;7.944;2024-01-30T00:45:12;7.10;58.40
10247;DHT22;5168;47.854;7.944;2024-01-30T00:47:37;7.30;58.30
10247;DHT22;5168;47.854;7.944;2024-01-30T00:52:29;7.40;59.00
10247;DHT22;5168;47.854;7.944;2024-01-30T00:59:46;7.30;59.40
10247;DHT22;5168;47.854;7.944;2024-01-30T01:04:40;7.70;59.80
10247;DHT22;5168;47.854;7.944;2024-01-30T01:07:06;7.10;59.80
10247;DHT22;5168;47.854;7.944;2024-01-30T01:19:15;7.30;60.80
10247;DHT22;5168;47.854;7.944;2024-01-30T01:24:07;6.90;60.00
10247;DHT22;5168;47.854;7.944;2024-01-30T01:41:08;7.50;59.50
10247;DHT22;5168;47.854;7.944;2024-01-30T01:43:34;7.80;59.60
10247;DHT22;5168;47.854;7.944;2024-01-30T01:45:59;7.80;60.30
10247;DHT22;5168;47.854;7.944;2024-01-30T01:48:26;7.70;60.20
10247;DHT22;5168;47.854;7.944;2024-01-30T01:50:52;7.20;59.90
10247;DHT22;5168;47.854;7.944;2024-01-30T01:53:18;7.10;59.50
10247;DHT22;5168;47.854;7.944;2024-01-30T01:55:43;7.20;57.40
10247;DHT22;5168;47.854;7.944;2024-01-30T01:58:09;7.40;56.40
10247;DHT22;5168;47.854;7.944;2024-01-30T02:00:36;7.20;56.60
10247;DHT22;5168;47.854;7.944;2024-01-30T02:05:31;6.80;60.20
10247;DHT22;5168;47.854;7.944;2024-01-30T02:07:57;6.40;62.00
10247;DHT22;5168;47.854;7.944;2024-01-30T02:10:22;6.30;62.70
10247;DHT22;5168;47.854;7.944;2024-01-30T02:12:48;6.50;61.30
10247;DHT22;5168;47.854;7.944;2024-01-30T02:22:34;5.90;66.00
10247;DHT22;5168;47.854;7.944;2024-01-30T02:27:26;6.00;66.20
10247;DHT22;5168;47.854;7.944;2024-01-30T02:29:52;5.50;65.70
10247;DHT22;5168;47.854;7.944;2024-01-30T02:32:17;5.50;65.90
10247;DHT22;5168;47.854;7.944;2024-01-30T02:34:43;5.30;64.00
10247;DHT22;5168;47.854;7.944;2024-01-30T02:37:08;5.40;67.10
10247;DHT22;5168;47.854;7.944;2024-01-30T02:39:34;5.60;67.70
10247;DHT22;5168;47.854;7.944;2024-01-30T02:41:59;5.10;67.10
10247;DHT22;5168;47.854;7.944;2024-01-30T02:51:45;5.40;65.20
10247;DHT22;5168;47.854;7.944;2024-01-30T02:54:10;5.00;67.60
10247;DHT22;5168;47.854;7.944;2024-01-30T02:56:36;5.30;66.90
10247;DHT22;5168;47.854;7.944;2024-01-30T03:01:27;5.10;68.40
10247;DHT22;5168;47.854;7.944;2024-01-30T03:03:53;5.00;68.10
10247;DHT22;5168;47.854;7.944;2024-01-30T03:08:45;5.00;68.30
10247;DHT22;5168;47.854;7.944;2024-01-30T03:16:03;5.10;67.30
10247;DHT22;5168;47.854;7.944;2024-01-30T03:23:20;5.10;69.50
10247;DHT22;5168;47.854;7.944;2024-01-30T03:25:46;4.90;70.60
10247;DHT22;5168;47.854;7.944;2024-01-30T03:30:37;5.00;68.60
10247;DHT22;5168;47.854;7.944;2024-01-30T03:35:29;5.10;69.80
10247;DHT22;5168;47.854;7.944;2024-01-30T03:40:20;5.20;67.20
10247;DHT22;5168;47.854;7.944;2024-01-30T03:59:48;5.80;62.30
10247;DHT22;5168;47.854;7.944;2024-01-30T04:02:13;5.80;62.60
10247;DHT22;5168;47.854;7.944;2024-01-30T04:04:39;5.90;61.20
10247;DHT22;5168;47.854;7.944;2024-01-30T04:14:23;6.30;58.40
10247;DHT22;5168;47.854;7.944;2024-01-30T04:16:49;6.00;54.60
10247;DHT22;5168;47.854;7.944;2024-01-30T04:21:40;6.20;57.80
10247;DHT22;5168;47.854;7.944;2024-01-30T04:24:06;6.70;58.00
10247;DHT22;5168;47.854;7.944;2024-01-30T04:26:31;6.90;55.50
10247;DHT22;5168;47.854;7.944;2024-01-30T04:28:57;6.40;57.40
10247;DHT22;5168;47.854;7.944;2024-01-30T04:31:23;6.50;57.90
10247;DHT22;5168;47.854;7.944;2024-01-30T04:33:48;6.60;56.20
10247;DHT22;5168;47.854;7.944;2024-01-30T04:43:31;6.40;60.70
10247;DHT22;5168;47.854;7.944;2024-01-30T04:45:57;5.90;61.10
10247;DHT22;5168;47.854;7.944;2024-01-30T04:48:22;6.30;61.50
10247;DHT22;5168;47.854;7.944;2024-01-30T04:55:40;6.20;63.00
10247;DHT22;5168;47.854;7.944;2024-01-30T04:58:05;6.40;64.10
10247;DHT22;5168;47.854;7.944;2024-01-30T05:00:31;5.90;62.30
10247;DHT22;5168;47.854;7.944;2024-01-30T05:05:22;5.80;63.80
10247;DHT22;5168;47.854;7.944;2024-01-30T05:07:48;5.80;64.50
10247;DHT22;5168;47.854;7.944;2024-01-30T05:12:40;6.00;66.50
10247;DHT22;5168;47.854;7.944;2024-01-30T05:15:06;5.60;67.00
10247;DHT22;5168;47.854;7.944;2024-01-30T05:17:32;5.40;66.50
10247;DHT22;5168;47.854;7.944;2024-01-30T05:19:58;5.60;67.60
10247;DHT22;5168;47.854;7.944;2024-01-30T05:22:24;5.20;65.10
10247;DHT22;5168;47.854;7.944;2024-01-30T05:27:15;5.10;67.60
10247;DHT22;5168;47.854;7.944;2024-01-30T05:29:41;5.20;70.70
10247;DHT22;5168;47.854;7.944;2024-01-30T05:32:06;5.10;70.00
10247;DHT22;5168;47.854;7.944;2024-01-30T05:44:16;5.20;70.70
10247;DHT22;5168;47.854;7.944;2024-01-30T05:46:41;5.10;70.40
10247;DHT22;5168;47.854;7.944;2024-01-30T05:49:07;5.10;69.10
10247;DHT22;5168;47.854;7.944;2024-01-30T05:53:58;5.40;71.40
10247;DHT22;5168;47.854;7.944;2024-01-30T05:56:24;5.20;71.90
10247;DHT22;5168;47.854;7.944;2024-01-30T06:01:16;5.00;70.80
10247;DHT22;5168;47.854;7.944;2024-01-30T06:03:41;5.20;68.50
10247;DHT22;5168;47.854;7.944;2024-01-30T06:06:08;5.60;69.60
10247;DHT22;5168;47.854;7.944;2024-01-30T06:08:34;4.70;72.10
10247;DHT22;5168;47.854;7.944;2024-01-30T06:13:26;5.20;69.90
10247;DHT22;5168;47.854;7.944;2024-01-30T06:23:10;5.00;73.10
10247;DHT22;5168;47.854;7.944;2024-01-30T06:25:35;5.20;72.90
10247;DHT22;5168;47.854;7.944;2024-01-30T06:28:01;5.00;72.00
10247;DHT22;5168;47.854;7.944;2024-01-30T06:35:18;5.10;70.40
10247;DHT22;5168;47.854;7.944;2024-01-30T06:37:44;4.90;69.50
10247;DHT22;5168;47.854;7.944;2024-01-30T06:40:10;5.60;66.60
10247;DHT22;5168;47.854;7.944;2024-01-30T06:42:35;5.50;69.00
10247;DHT22;5168;47.854;7.944;2024-01-30T06:45:01;5.20;70.00
10247;DHT22;5168;47.854;7.944;2024-01-30T06:47:26;5.60;70.70
10247;DHT22;5168;47.854;7.944;2024-01-30T06:49:52;5.00;70.80
10247;DHT22;5168;47.854;7.944;2024-01-30T06:52:18;5.00;70.30
10247;DHT22;5168;47.854;7.944;2024-01-30T06:57:09;4.90;73.10
10247;DHT22;5168;47.854;7.944;2024-01-30T06:59:37;4.90;73.20
10247;DHT22;5168;47.854;7.944;2024-01-30T07:02:09;5.00;73.70
10247;DHT22;5168;47.854;7.944;2024-01-30T07:04:35;4.60;73.10
10247;DHT22;5168;47.854;7.944;2024-01-30T07:07:02;4.70;69.30
10247;DHT22;5168;47.854;7.944;2024-01-30T07:14:24;4.40;73.40
10247;DHT22;5168;47.854;7.944;2024-01-30T07:16:49;4.40;73.30
10247;DHT22;5168;47.854;7.944;2024-01-30T07:19:15;4.70;73.40
10247;DHT22;5168;47.854;7.944;2024-01-30T07:21:41;4.80;74.00
10247;DHT22;5168;47.854;7.944;2024-01-30T07:28:58;4.50;71.60
10247;DHT22;5168;47.854;7.944;2024-01-30T07:33:50;4.80;70.20
10247;DHT22;5168;47.854;7.944;2024-01-30T07:45:59;4.50;74.80
10247;DHT22;5168;47.854;7.944;2024-01-30T07:48:27;4.60;74.90
10247;DHT22;5168;47.854;7.944;2024-01-30T07:50:52;5.50;75.70
10247;DHT22;5168;47.854;7.944;2024-01-30T07:53:18;4.90;72.70
10247;DHT22;5168;47.854;7.944;2024-01-30T07:58:12;5.40;73.40
10247;DHT22;5168;47.854;7.944;2024-01-30T08:00:37;5.30;74.70
10247;DHT22;5168;47.854;7.944;2024-01-30T08:03:04;5.10;73.30
10247;DHT22;5168;47.854;7.944;2024-01-30T08:05:29;5.30;73.40
10247;DHT22;5168;47.854;7.944;2024-01-30T08:10:21;6.20;67.80
10247;DHT22;5168;47.854;7.944;2024-01-30T08:15:12;6.40;69.00
10247;DHT22;5168;47.854;7.944;2024-01-30T08:17:38;6.30;67.40
10247;DHT22;5168;47.854;7.944;2024-01-30T08:20:04;7.00;61.60
10247;DHT22;5168;47.854;7.944;2024-01-30T08:24:56;7.20;64.20
10247;DHT22;5168;47.854;7.944;2024-01-30T08:27:22;7.30;63.20
10247;DHT22;5168;47.854;7.944;2024-01-30T08:41:57;8.90;56.40
10247;DHT22;5168;47.854;7.944;2024-01-30T08:44:23;8.80;59.40
10247;DHT22;5168;47.854;7.944;2024-01-30T08:46:48;8.60;58.70
10247;DHT22;5168;47.854;7.944;2024-01-30T08:49:16;9.10;56.80
10247;DHT22;5168;47.854;7.944;2024-01-30T08:54:07;8.40;59.40
10247;DHT22;5168;47.854;7.944;2024-01-30T08:56:33;9.00;58.90
10247;DHT22;5168;47.854;7.944;2024-01-30T08:58:59;8.60;55.50
10247;DHT22;5168;47.854;7.944;2024-01-30T09:11:10;8.70;58.20
10247;DHT22;5168;47.854;7.944;2024-01-30T09:13:36;8.60;59.90
10247;DHT22;5168;47.854;7.944;2024-01-30T09:20:53;8.30;57.80
10247;DHT22;5168;47.854;7.944;2024-01-30T09:23:19;8.30;61.20
10247;DHT22;5168;47.854;7.944;2024-01-30T09:25:45;8.40;57.10
10247;DHT22;5168;47.854;7.944;2024-01-30T09:28:10;8.50;57.90
10247;DHT22;5168;47.854;7.944;2024-01-30T09:30:36;8.30;58.50
10247;DHT22;5168;47.854;7.944;2024-01-30T09:35:27;8.40;62.00
10247;DHT22;5168;47.854;7.944;2024-01-30T09:40:19;8.30;59.80
10247;DHT22;5168;47.854;7.944;2024-01-30T09:42:50;8.40;60.90
10247;DHT22;5168;47.854;7.944;2024-01-30T09:45:23;8.30;60.00
10247;DHT22;5168;47.854;7.944;2024-01-30T09:47:49;8.30;61.50
10247;DHT22;5168;47.854;7.944;2024-01-30T09:52:43;8.20;57.80
10247;DHT22;5168;47.854;7.944;2024-01-30T09:55:09;8.10;62.60
10247;DHT22;5168;47.854;7.944;2024-01-30T09:57:35;8.40;57.60
10247;DHT22;5168;47.854;7.944;2024-01-30T10:00:02;8.50;62.60
10247;DHT22;5168;47.854;7.944;2024-01-30T10:02:28;8.30;62.40
10247;DHT22;5168;47.854;7.944;2024-01-30T10:09:46;8.30;59.80
10247;DHT22;5168;47.854;7.944;2024-01-30T10:12:12;8.30;59.60
10247;DHT22;5168;47.854;7.944;2024-01-30T10:14:42;8.20;62.70
10247;DHT22;5168;47.854;7.944;2024-01-30T10:17:08;8.30;57.40
10247;DHT22;5168;47.854;7.944;2024-01-30T10:19:35;8.10;61.60
10247;DHT22;5168;47.854;7.944;2024-01-30T10:22:01;8.30;61.60
10247;DHT22;5168;47.854;7.944;2024-01-30T10:24:27;8.40;62.30
10247;DHT22;5168;47.854;7.944;2024-01-30T10:32:03;8.00;59.10
10247;DHT22;5168;47.854;7.944;2024-01-30T10:37:09;8.40;56.40
10247;DHT22;5168;47.854;7.944;2024-01-30T10:39:42;8.70;56.70
10247;DHT22;5168;47.854;7.944;2024-01-30T10:42:12;8.80;60.20
10247;DHT22;5168;47.854;7.944;2024-01-30T10:47:27;9.00;61.40
10247;DHT22;5168;47.854;7.944;2024-01-30T10:49:54;8.70;56.90
10247;DHT22;5168;47.854;7.944;2024-01-30T10:52:20;9.20;60.70
10247;DHT22;5168;47.854;7.944;2024-01-30T10:54:49;9.10;57.10
10247;DHT22;5168;47.854;7.944;2024-01-30T10:57:15;9.10;57.00
10247;DHT22;5168;47.854;7.944;2024-01-30T10:59:42;9.20;56.80
10247;DHT22;5168;47.854;7.944;2024-01-30T11:02:08;9.10;59.70
10247;DHT22;5168;47.854;7.944;2024-01-30T11:04:38;9.40;60.20
10247;DHT22;5168;47.854;7.944;2024-01-30T11:07:27;10.00;58.10
10247;DHT22;5168;47.854;7.944;2024-01-30T11:09:59;9.90;60.60
10247;DHT22;5168;47.854;7.944;2024-01-30T11:12:30;9.70;60.50
10247;DHT22;5168;47.854;7.944;2024-01-30T11:15:07;9.00;56.60
10247;DHT22;5168;47.854;7.944;2024-01-30T11:20:11;9.20;60.90
10247;DHT22;5168;47.854;7.944;2024-01-30T11:22:37;9.50;60.70
10247;DHT22;5168;47.854;7.944;2024-01-30T11:25:03;9.70;58.70
10247;DHT22;5168;47.854;7.944;2024-01-30T11:27:30;9.90;59.10
10247;DHT22;5168;47.854;7.944;2024-01-30T11:30:02;10.60;54.40
10247;DHT22;5168;47.854;7.944;2024-01-30T11:32:28;11.30;56.60
10247;DHT22;5168;47.854;7.944;2024-01-30T11:34:57;12.30;54.90
10247;DHT22;5168;47.854;7.944;2024-01-30T11:37:25;13.00;55.60
10247;DHT22;5168;47.854;7.944;2024-01-30T11:39:53;13.20;54.60
10247;DHT22;5168;47.854;7.944;2024-01-30T11:42:19;14.40;53.80
10247;DHT22;5168;47.854;7.944;2024-01-30T11:44:48;14.60;50.10
10247;DHT22;5168;47.854;7.944;2024-01-30T11:47:14;14.80;50.10
10247;DHT22;5168;47.854;7.944;2024-01-30T11:49:40;15.60;52.20
10247;DHT22;5168;47.854;7.944;2024-01-30T11:56:58;13.70;52.20
10247;DHT22;5168;47.854;7.944;2024-01-30T11:59:24;13.00;52.20
10247;DHT22;5168;47.854;7.944;2024-01-30T12:01:51;13.10;51.30
10247;DHT22;5168;47.854;7.944;2024-01-30T12:04:17;12.40;54.30
10247;DHT22;5168;47.854;7.944;2024-01-30T12:06:43;11.90;55.50
10247;DHT22;5168;47.854;7.944;2024-01-30T12:09:09;12.40;56.80
10247;DHT22;5168;47.854;7.944;2024-01-30T12:11:47;12.50;58.00
10247;DHT22;5168;47.854;7.944;2024-01-30T12:14:13;12.10;58.20
10247;DHT22;5168;47.854;7.944;2024-01-30T12:16:39;11.70;57.30
10247;DHT22;5168;47.854;7.944;2024-01-30T12:21:30;11.80;58.60
10247;DHT22;5168;47.854;7.944;2024-01-30T12:23:57;11.90;58.90
10247;DHT22;5168;47.854;7.944;2024-01-30T12:26:26;11.60;56.10
10247;DHT22;5168;47.854;7.944;2024-01-30T12:28:54;11.40;56.10
10247;DHT22;5168;47.854;7.944;2024-01-30T12:31:31;11.50;59.70
10247;DHT22;5168;47.854;7.944;2024-01-30T12:33:59;11.30;56.70
10247;DHT22;5168;47.854;7.944;2024-01-30T12:36:25;11.50;60.90
10247;DHT22;5168;47.854;7.944;2024-01-30T12:38:51;11.10;61.40
10247;DHT22;5168;47.854;7.944;2024-01-30T12:41:16;10.90;61.90
10247;DHT22;5168;47.854;7.944;2024-01-30T12:43:42;10.50;61.10
10247;DHT22;5168;47.854;7.944;2024-01-30T12:46:08;10.90;62.90
10247;DHT22;5168;47.854;7.944;2024-01-30T12:55:52;10.20;65.50
10247;DHT22;5168;47.854;7.944;2024-01-30T12:58:19;10.80;66.40
10247;DHT22;5168;47.854;7.944;2024-01-30T13:03:12;10.30;66.70
10247;DHT22;5168;47.854;7.944;2024-01-30T13:05:38;10.70;67.10
10247;DHT22;5168;47.854;7.944;2024-01-30T13:10:29;10.40;67.30
10247;DHT22;5168;47.854;7.944;2024-01-30T13:17:48;10.80;68.20
10247;DHT22;5168;47.854;7.944;2024-01-30T13:20:14;10.60;68.10
10247;DHT22;5168;47.854;7.944;2024-01-30T13:27:37;10.10;68.90
10247;DHT22;5168;47.854;7.944;2024-01-30T13:30:03;10.50;69.90
10247;DHT22;5168;47.854;7.944;2024-01-30T13:32:29;10.10;69.70
10247;DHT22;5168;47.854;7.944;2024-01-30T13:34:54;10.00;70.10
10247;DHT22;5168;47.854;7.944;2024-01-30T13:42:12;9.90;71.30
10247;DHT22;5168;47.854;7.944;2024-01-30T13:44:38;9.90;71.60
10247;DHT22;5168;47.854;7.944;2024-01-30T13:49:29;10.30;71.40
10247;DHT22;5168;47.854;7.944;2024-01-30T13:51:55;9.90;70.10
10247;DHT22;5168;47.854;7.944;2024-01-30T13:54:20;10.10;71.00
10247;DHT22;5168;47.854;7.944;2024-01-30T13:56:46;10.40;71.70
10247;DHT22;5168;47.854;7.944;2024-01-30T13:59:11;10.80;71.10
10247;DHT22;5168;47.854;7.944;2024-01-30T14:08:55;10.60;71.10
10247;DHT22;5168;47.854;7.944;2024-01-30T14:11:20;10.20;71.30
10247;DHT22;5168;47.854;7.944;2024-01-30T14:13:46;10.10;71.60
10247;DHT22;5168;47.854;7.944;2024-01-30T14:28:21;9.60;76.10
10247;DHT22;5168;47.854;7.944;2024-01-30T14:30:47;9.20;76.10
10247;DHT22;5168;47.854;7.944;2024-01-30T14:33:13;9.10;76.30
10247;DHT22;5168;47.854;7.944;2024-01-30T14:45:24;8.70;77.60
10247;DHT22;5168;47.854;7.944;2024-01-30T14:47:50;8.90;78.20
10247;DHT22;5168;47.854;7.944;2024-01-30T14:52:42;8.70;78.20
10247;DHT22;5168;47.854;7.944;2024-01-30T14:55:08;8.60;78.40
10247;DHT22;5168;47.854;7.944;2024-01-30T14:57:34;8.60;78.50
10247;DHT22;5168;47.854;7.944;2024-01-30T15:00:00;8.60;78.70
10247;DHT22;5168;47.854;7.944;2024-01-30T15:02:26;8.40;76.30
10247;DHT22;5168;47.854;7.944;2024-01-30T15:04:51;8.50;79.30
10247;DHT22;5168;47.854;7.944;2024-01-30T15:07:17;8.40;79.30
10247;DHT22;5168;47.854;7.944;2024-01-30T15:12:08;8.30;79.50
10247;DHT22;5168;47.854;7.944;2024-01-30T15:17:00;8.70;79.80
10247;DHT22;5168;47.854;7.944;2024-01-30T15:19:26;8.00;79.20
10247;DHT22;5168;47.854;7.944;2024-01-30T15:21:52;8.10;76.00
10247;DHT22;5168;47.854;7.944;2024-01-30T15:24:17;8.20;80.30
10247;DHT22;5168;47.854;7.944;2024-01-30T15:26:43;8.40;81.00
10247;DHT22;5168;47.854;7.944;2024-01-30T15:29:09;8.10;80.80
10247;DHT22;5168;47.854;7.944;2024-01-30T15:34:00;8.30;81.60
10247;DHT22;5168;47.854;7.944;2024-01-30T15:36:26;8.40;82.30
10247;DHT22;5168;47.854;7.944;2024-01-30T15:38:51;7.70;82.20
10247;DHT22;5168;47.854;7.944;2024-01-30T15:46:09;7.60;83.60
10247;DHT22;5168;47.854;7.944;2024-01-30T15:48:34;7.50;83.50
10247;DHT22;5168;47.854;7.944;2024-01-30T15:51:00;7.60;83.70
10247;DHT22;5168;47.854;7.944;2024-01-30T15:53:26;7.60;80.20
10247;DHT22;5168;47.854;7.944;2024-01-30T15:55:52;7.50;80.50
10247;DHT22;5168;47.854;7.944;2024-01-30T16:05:35;7.40;86.90
10247;DHT22;5168;47.854;7.944;2024-01-30T16:08:01;7.40;86.00
10247;DHT22;5168;47.854;7.944;2024-01-30T16:10:27;7.20;87.20
10247;DHT22;5168;47.854;7.944;2024-01-30T16:20:10;7.30;89.00
10247;DHT22;5168;47.854;7.944;2024-01-30T16:22:36;6.90;89.50
10247;DHT22;5168;47.854;7.944;2024-01-30T16:25:02;7.00;90.10
10247;DHT22;5168;47.854;7.944;2024-01-30T16:27:29;7.30;86.60
10247;DHT22;5168;47.854;7.944;2024-01-30T16:32:21;6.60;90.20
10247;DHT22;5168;47.854;7.944;2024-01-30T16:34:46;7.10;90.70
10247;DHT22;5168;47.854;7.944;2024-01-30T16:37:12;6.80;90.60
10247;DHT22;5168;47.854;7.944;2024-01-30T16:44:29;7.00;91.80
10247;DHT22;5168;47.854;7.944;2024-01-30T16:49:21;6.20;91.80
10247;DHT22;5168;47.854;7.944;2024-01-30T16:51:46;6.80;91.70
10247;DHT22;5168;47.854;7.944;2024-01-30T16:59:04;6.50;92.50
10247;DHT22;5168;47.854;7.944;2024-01-30T17:01:29;6.30;92.60
10247;DHT22;5168;47.854;7.944;2024-01-30T17:06:21;6.70;91.60
10247;DHT22;5168;47.854;7.944;2024-01-30T17:11:12;6.10;93.20
10247;DHT22;5168;47.854;7.944;2024-01-30T17:13:38;6.60;93.60
10247;DHT22;5168;47.854;7.944;2024-01-30T17:16:03;6.40;93.50
10247;DHT22;5168;47.854;7.944;2024-01-30T17:18:30;6.60;91.90
10247;DHT22;5168;47.854;7.944;2024-01-30T17:23:22;6.50;94.20
10247;DHT22;5168;47.854;7.944;2024-01-30T17:25:49;6.30;94.50
10247;DHT22;5168;47.854;7.944;2024-01-30T17:28:15;6.40;93.10
10247;DHT22;5168;47.854;7.944;2024-01-30T17:30:40;6.50;94.80
10247;DHT22;5168;47.854;7.944;2024-01-30T17:33:06;6.30;94.60
10247;DHT22;5168;47.854;7.944;2024-01-30T17:37:58;6.50;93.50
10247;DHT22;5168;47.854;7.944;2024-01-30T17:40:23;6.60;95.80
10247;DHT22;5168;47.854;7.944;2024-01-30T17:42:49;6.10;95.60
10247;DHT22;5168;47.854;7.944;2024-01-30T17:45:14;6.60;95.70
10247;DHT22;5168;47.854;7.944;2024-01-30T17:50:06;5.90;96.70
10247;DHT22;5168;47.854;7.944;2024-01-30T17:52:32;6.20;97.00
10247;DHT22;5168;47.854;7.944;2024-01-30T17:54:58;6.10;95.80
10247;DHT22;5168;47.854;7.944;2024-01-30T17:57:23;6.30;97.40
10247;DHT22;5168;47.854;7.944;2024-01-30T17:59:49;6.10;97.60
10247;DHT22;5168;47.854;7.944;2024-01-30T18:02:15;6.50;96.50
10247;DHT22;5168;47.854;7.944;2024-01-30T18:09:33;6.00;97.40
10247;DHT22;5168;47.854;7.944;2024-01-30T18:11:58;6.20;96.30
10247;DHT22;5168;47.854;7.944;2024-01-30T18:14:24;6.00;98.30
10247;DHT22;5168;47.854;7.944;2024-01-30T18:16:50;5.90;98.30
10247;DHT22;5168;47.854;7.944;2024-01-30T18:21:42;5.90;98.50
10247;DHT22;5168;47.854;7.944;2024-01-30T18:31:26;5.90;99.30
10247;DHT22;5168;47.854;7.944;2024-01-30T18:36:21;6.00;99.90
10247;DHT22;5168;47.854;7.944;2024-01-30T18:38:49;6.30;99.90
10247;DHT22;5168;47.854;7.944;2024-01-30T18:41:15;6.10;99.20
10247;DHT22;5168;47.854;7.944;2024-01-30T18:43:41;6.00;99.90
10247;DHT22;5168;47.854;7.944;2024-01-30T18:46:08;5.90;99.20
10247;DHT22;5168;47.854;7.944;2024-01-30T18:48:35;5.80;99.90
10247;DHT22;5168;47.854;7.944;2024-01-30T18:51:02;5.60;99.90
10247;DHT22;5168;47.854;7.944;2024-01-30T18:53:27;6.10;99.90
10247;DHT22;5168;47.854;7.944;2024-01-30T19:03:11;6.20;99.90
10247;DHT22;5168;47.854;7.944;2024-01-30T19:05:37;5.90;99.90
10247;DHT22;5168;47.854;7.944;2024-01-30T19:08:02;6.00;99.90
10247;DHT22;5168;47.854;7.944;2024-01-30T19:12:54;5.80;99.90
10247;DHT22;5168;47.854;7.944;2024-01-30T19:27:31;5.80;99.90
10247;DHT22;5168;47.854;7.944;2024-01-30T19:29:57;5.70;99.90
10247;DHT22;5168;47.854;7.944;2024-01-30T19:32:23;5.70;99.90
10247;DHT22;5168;47.854;7.944;2024-01-30T19:34:49;5.90;99.90
10247;DHT22;5168;47.854;7.944;2024-01-30T19:39:42;5.80;99.90
10247;DHT22;5168;47.854;7.944;2024-01-30T19:47:03;5.20;99.90
10247;DHT22;5168;47.854;7.944;2024-01-30T19:49:37;5.40;99.90
10247;DHT22;5168;47.854;7.944;2024-01-30T19:52:06;5.50;99.90
10247;DHT22;5168;47.854;7.944;2024-01-30T19:54:34;5.70;99.90
10247;DHT22;5168;47.854;7.944;2024-01-30T19:59:26;5.70;99.90
10247;DHT22;5168;47.854;7.944;2024-01-30T20:01:52;5.20;99.90
10247;DHT22;5168;47.854;7.944;2024-01-30T20:11:36;5.70;99.90
10247;DHT22;5168;47.854;7.944;2024-01-30T20:14:02;5.50;99.90
10247;DHT22;5168;47.854;7.944;2024-01-30T20:16:37;6.20;99.90
10247;DHT22;5168;47.854;7.944;2024-01-30T20:19:04;5.90;99.90
10247;DHT22;5168;47.854;7.944;2024-01-30T20:21:30;5.60;99.90
10247;DHT22;5168;47.854;7.944;2024-01-30T20:23:55;5.80;99.90
10247;DHT22;5168;47.854;7.944;2024-01-30T20:26:21;5.60;99.90
10247;DHT22;5168;47.854;7.944;2024-01-30T20:28:46;5.40;99.90
10247;DHT22;5168;47.854;7.944;2024-01-30T20:36:06;5.40;99.90
10247;DHT22;5168;47.854;7.944;2024-01-30T20:38:32;5.40;99.90
10247;DHT22;5168;47.854;7.944;2024-01-30T20:40:59;5.30;99.90
10247;DHT22;5168;47.854;7.944;2024-01-30T20:43:25;5.90;99.90
10247;DHT22;5168;47.854;7.944;2024-01-30T20:45:50;5.20;99.90
10247;DHT22;5168;47.854;7.944;2024-01-30T20:48:16;5.40;99.90
10247;DHT22;5168;47.854;7.944;2024-01-30T20:50:43;5.70;99.90
10247;DHT22;5168;47.854;7.944;2024-01-30T20:53:08;5.60;99.90
10247;DHT22;5168;47.854;7.944;2024-01-30T21:00:28;5.80;99.90
10247;DHT22;5168;47.854;7.944;2024-01-30T21:02:54;5.60;99.90
10247;DHT22;5168;47.854;7.944;2024-01-30T21:05:19;5.50;99.90
10247;DHT22;5168;47.854;7.944;2024-01-30T21:07:48;5.60;99.90
10247;DHT22;5168;47.854;7.944;2024-01-30T21:10:14;5.60;99.90
10247;DHT22;5168;47.854;7.944;2024-01-30T21:12:40;5.50;99.90
10247;DHT22;5168;47.854;7.944;2024-01-30T21:15:06;5.30;99.90
10247;DHT22;5168;47.854;7.944;2024-01-30T21:17:33;5.30;99.90
10247;DHT22;5168;47.854;7.944;2024-01-30T21:22:24;5.30;99.90
10247;DHT22;5168;47.854;7.944;2024-01-30T21:24:50;5.40;99.90
10247;DHT22;5168;47.854;7.944;2024-01-30T21:29:43;5.20;99.90
10247;DHT22;5168;47.854;7.944;2024-01-30T21:32:09;4.80;99.90
10247;DHT22;5168;47.854;7.944;2024-01-30T21:34:35;4.90;99.90
10247;DHT22;5168;47.854;7.944;2024-01-30T21:37:01;5.10;99.90
10247;DHT22;5168;47.854;7.944;2024-01-30T21:39:26;4.90;99.90
10247;DHT22;5168;47.854;7.944;2024-01-30T21:46:44;5.00;99.90
10247;DHT22;5168;47.854;7.944;2024-01-30T21:49:09;4.80;99.90
10247;DHT22;5168;47.854;7.944;2024-01-30T21:51:35;5.00;99.90
10247;DHT22;5168;47.854;7.944;2024-01-30T21:54:01;4.90;99.90
10247;DHT22;5168;47.854;7.944;2024-01-30T22:03:44;4.60;99.90
10247;DHT22;5168;47.854;7.944;2024-01-30T22:13:32;4.80;99.90
10247;DHT22;5168;47.854;7.944;2024-01-30T22:18:24;4.80;99.90
10247;DHT22;5168;47.854;7.944;2024-01-30T22:20:50;4.20;99.90
10247;DHT22;5168;47.854;7.944;2024-01-30T22:25:41;4.00;99.90
10247;DHT22;5168;47.854;7.944;2024-01-30T22:28:07;5.00;99.90
10247;DHT22;5168;47.854;7.944;2024-01-30T22:30:34;4.50;99.90
10247;DHT22;5168;47.854;7.944;2024-01-30T22:33:00;4.30;99.90
10247;DHT22;5168;47.854;7.944;2024-01-30T22:40:18;4.70;99.90
10247;DHT22;5168;47.854;7.944;2024-01-30T22:42:43;4.70;99.90
10247;DHT22;5168;47.854;7.944;2024-01-30T22:45:09;4.70;99.90
10247;DHT22;5168;47.854;7.944;2024-01-30T22:54:52;4.80;99.90
10247;DHT22;5168;47.854;7.944;2024-01-30T22:59:44;4.90;99.90
10247;DHT22;5168;47.854;7.944;2024-01-30T23:02:09;5.40;99.90
10247;DHT22;5168;47.854;7.944;2024-01-30T23:09:27;5.20;99.90
10247;DHT22;5168;47.854;7.944;2024-01-30T23:11:52;5.00;99.90
10247;DHT22;5168;47.854;7.944;2024-01-30T23:14:18;4.90;99.90
10247;DHT22;5168;47.854;7.944;2024-01-30T23:16:44;5.10;99.90
10247;DHT22;5168;47.854;7.944;2024-01-30T23:19:09;5.00;99.90
10247;DHT22;5168;47.854;7.944;2024-01-30T23:21:36;4.80;99.90
10247;DHT22;5168;47.854;7.944;2024-01-30T23:26:27;5.10;99.90
10247;DHT22;5168;47.854;7.944;2024-01-30T23:28:53;4.80;99.90
10247;DHT22;5168;47.854;7.944;2024-01-30T23:31:19;4.60;99.90
10247;DHT22;5168;47.854;7.944;2024-01-30T23:33:47;4.90;99.90
10247;DHT22;5168;47.854;7.944;2024-01-30T23:41:04;5.30;99.90
10247;DHT22;5168;47.854;7.944;2024-01-30T23:43:30;5.40;99.90
10247;DHT22;5168;47.854;7.944;2024-01-30T23:45:55;5.60;99.90
10247;DHT22;5168;47.854;7.944;2024-01-30T23:55:40;4.80;99.90
10247;DHT22;5168;47.854;7.944;2024-01-30T23:58:06;4.80;99.90
